AirNav   Duncan Aviation - Near you to keep you flying
 
 1187 users online  

KTNT Dade-Collier Training and Transition Airport
Miami, Florida, USA

GOING TO MIAMI?


FAA INFORMATION EFFECTIVE 11 AUGUST 2022

Location

FAA Identifier: TNT
Lat/Long: 25-51-42.5000N 080-53-49.2000W
25-51.708333N 080-53.820000W
25.8618056,-80.8970000
(estimated)
Elevation: 12.7 ft. / 3.9 m (surveyed)
Variation: 05W (2005)
From city: 36 miles W of MIAMI, FL
Time zone: UTC -4 (UTC -5 during Standard Time)
Zip code: 34141

Airport Operations

Airport use: Open to the public, ARPT CLSD TO PUBLIC EXCP BY ARRANGEMENT WITH MIAMI-DADE AVIATION DEPT MIAMI 305-869-1660.
Control tower: no
ARTCC: MIAMI CENTER
FSS: MIAMI FLIGHT SERVICE STATION
NOTAMs facility: MIA (NOTAM-D service available)
Attendance: 0830-1730
Wind indicator: lighted
Segmented circle: yes
Beacon: white-green (lighted land airport)
Operates sunset to sunrise.
Landing fee: yes

Airport Communications

CTAF/UNICOM: 123.0
WX AWOS-3: 119.075 (239-695-9198)
MIAMI APPROACH: 128.6
MIAMI DEPARTURE: 128.6

Nearby radio navigation aids

VOR radial/distance  VOR name  Freq  Var
DHPr281/29.8DOLPHIN VORTAC113.9004W

Airport Services

Airframe service: NONE
Powerplant service: NONE
Bottled oxygen: NONE
Bulk oxygen: NONE

Runway Information

Runway 9/27

Dimensions: 10499 x 150 ft. / 3200 x 46 m
Surface: asphalt/porous friction courses, in good condition
Weight bearing capacity: 
PCN 65 /F/A/X/T
Single wheel: 130.0
Double wheel: 200.0
Double tandem: 400.0
Dual double tandem: 800.0
Runway edge lights: high intensity
RUNWAY 9  RUNWAY 27
Latitude: 25-51.708232N25-51.707022N
Longitude: 080-54.777252W080-52.861753W
Elevation: 12.6 ft.12.4 ft.
Traffic pattern: leftright
Runway heading: 095 magnetic, 090 true275 magnetic, 270 true
Markings: precision, in fair conditionprecision, in fair condition
Touchdown point: yes, no lightsyes, no lights
Instrument approach: ILS
Obstructions: none26 ft. trees, 1075 ft. from runway, 290 ft. right of centerline, 34:1 slope to clear

Airport Ownership and Management from official FAA records

Ownership: Publicly-owned
Owner: MIAMI-DADE COUNTY
MIAMI-DADE AVIATION DEPARTMENT, PO BOX 025504
MIAMI, FL 33102-5504
Phone (305) 876-0464
Manager: ELVIN HERNANDEZ
14201 NW LEJEUNE RD
OPA-LOCKA, FL 33054
Phone (305) 869-1662
AIRPORT PHYSICAL ADDRESS: 54757 EAST TAMIAMI TRAIL, OCHOPPI, FL 34141 239-695-3300, FAX: 305-876-0565

Airport Operational Statistics

Aircraft operations: avg 40/day *
100% transient general aviation
* for 12-month period ending 10 October 2018

Additional Remarks

A100 ACR TRNG OPNS ONLY.
THREE 8IN WELLS FLUSH MTD BTN RWY AND TWY.
FEE FOR USE FOR ACFT OVER 12500 LBS.
MAEW IN BUFFER ISLAND BTN RY 09/27 & TWY.
WILDLIFE OCCASIONALLY ON & INVOF ARPT.
BE ALERT TO LOW FLYING NATIONAL PARK SVC ACFT ALL QUADRANTS.
NO NGT TIME OPNS EXC WITH PRIOR PMSN FM MIAMI-DADE AVN DEPT 305-869-1660.
FOR CD IF UNA TO CTC ON FSS FREQ, CTC MIAMI APCH AT 305-869-5432.

Instrument Procedures

NOTE: All procedures below are presented as PDF files. If you need a reader for these files, you should download the free Adobe Reader.

NOT FOR NAVIGATION. Please procure official charts for flight.
FAA instrument procedures published for use from 11 August 2022 at 0901Z to 08 September 2022 at 0900z.

 
IAPs - Instrument Approach Procedures
RNAV (GPS) RWY 09   download (246KB)

Other nearby airports with instrument procedures:

KTMB - Miami Executive Airport (28 nm SE)
X51 - Miami Homestead General Aviation Airport (29 nm SE)
KMIA - Miami International Airport (33 nm E)
KOPF - Miami-Opa Locka Executive Airport (34 nm E)
KHST - Homestead Air Reserve Base (36 nm SE)
 
Loc | Ops | Rwys | IFR | FBO | Links
Com | Nav | Svcs | Stats | Notes

Reliance Aviation
AirBoss

 
Area around KTNT (Dade-Collier Training and Transition Airport)
 
Road maps at: MapQuest Bing Google
 
Aerial photo
WARNING: Photo may not be current or correct
Aerial photo of KTNT (Dade-Collier Training and Transition Airport)
Do you have a better or more recent aerial photo of Dade-Collier Training and Transition Airport that you would like to share? If so, please send us your photo.

 
Sectional chart

 
Airport distance calculator
Flying to Dade-Collier Training and Transition Airport? Find the distance to fly.

From to KTNT

Sunrise and sunset
Times for 13-Aug-2022
 Local
(UTC-4)
 Zulu
(UTC)
Morning civil twilight06:3210:32
Sunrise06:5610:56
Sunset20:0000:00
Evening civil twilight20:2400:24

Current date and time
Zulu (UTC)  13-Aug-2022 18:07:46
Local (UTC-4)  13-Aug-2022 14:07:46
 
METAR
KTMB 
28nm SE 
131802Z 27008KT 10SM TS BKN040 OVC050 27/23 A3002 RMK AO2 WSHFT 1742 LTG DSNT N AND NE T02720228
KMIA 
32nm E 
131753Z 11012KT 10SM TS FEW009 SCT025CB BKN030 BKN250 32/22 A3001 RMK AO2 LTG DSNT SW-N SLP163 OCNL LTGICCG N AND SW TS N AND SW MOV STNRY CB DSNT S T03170217 10333 20283 58011 $
KOPF 
33nm E 
131753Z 34013KT 4SM +TSRA SCT037 SCT048 25/22 A3004 RMK AO2 WSHFT 1737 LTG DSNT SW-N TSB1655 SLP171 P0058 60075 T02500222 10333 20250 56003
KHWO 
37nm E 
131714Z AUTO TS RMK AO2 LTG DSNT N B04B06B09B12 TSB1626E1636B14 P0010 $
KHST 
37nm SE 
131756Z AUTO 12009KT 10SM FEW036 SCT190 32/23 A2999 RMK AO2 LTG DSNT NW-N SLP159 T03230229 10323 20260 57013
KFLL 
42nm E 
131753Z 14010KT 10SM TS SCT025CB BKN070 BKN110 BKN250 29/23 A3002 RMK AO2 LTG DSNT SW-N TSB1656 SLP166 FRQ LTGICCG SW-NW-NE TS SW-NW-NE MOV STNRY T02940233 10317 20267 56005 $
KMKY 
43nm W 
131756Z AUTO 24007KT 10SM CLR 33/22 A3003 RMK AO2 SLP170 6//// T03280217 10333 20244 58009 TSNO PNO $
KFXE 
43nm NE 
131753Z 26005KT 10SM TSRA FEW041 SCT048 BKN070 26/24 A3004 RMK AO2 SLP173 P0052 60052 T02610244 10333 20256 56003
KIMM 
44nm NW 
131755Z AUTO VRB04KT 10SM CLR 34/22 A3001 RMK AO2 LTG DSNT E
KPMP 
48nm NE 
131753Z 14009KT 7SM VCTS BKN030 30/23 A3003 RMK AO2 LTG DSNT ALQDS TSB00E17B20E35 SLP169 60000 T03000233 10322 20261 56006
TAF
KTMB 
28nm SE 
131720Z 1318/1418 14007KT P6SM VCTS SCT030CB BKN250 FM140200 VRB04KT P6SM FEW030 BKN250 FM141200 VRB03KT P6SM VCSH BKN250
KMIA 
32nm E 
131720Z 1318/1424 14009KT P6SM VCTS SCT030CB BKN250 FM140300 VRB04KT P6SM FEW030 BKN250 FM141500 VRB05KT P6SM VCTS SCT030CB BKN150 FM141800 19007KT P6SM VCTS SCT030CB BKN100
KOPF 
33nm E 
131720Z 1318/1418 12009KT P6SM VCTS SCT030CB BKN060 TEMPO 1318/1320 4SM TSRA BKN035CB FM140300 VRB03KT P6SM FEW030 BKN250 FM141500 VRB03KT P6SM VCTS SCT030CB BKN050
NOTAMs
Click for the latest NOTAMs
NOTAMs are issued by the DoD/FAA and will open in a separate window not controlled by AirNav.

 

 
 

Would you like to see your business listed on this page?

 If your business provides an interesting product or service to pilots, flight crews, aircraft, or users of the Dade-Collier Training and Transition Airport, you should consider listing it here.  To start the listing process, click on the button below
 
Add a business
 

Other Pages about Dade-Collier Training and Transition Airport

Update a link
 
Copyright © AirNav, LLC. All rights reserved. Privacy Policy  Contact